Pemaquid Point Lighthouse, ME

43° 50' 13"N, 69° 30' 22"W, Elevation 40 ft.
Eastern Time

Hourly observations for the last 72 hours

Date Time Temperature (°F) Humi-
dity

(%)
Wind
(mph)
Pressure Rain (in) Sun
(W/m2)
UV ET
(in)
Air Dew 6 Hour 1 Hr 3 Hr 6 Hr Day
Alt
(in)
Sea
Level

(mb)
Max Min
31 09:00 60.7 52.7 75 WNW 9 G 17 29.82 1010.0 0.00 58 1.2 0.019
31 08:00 59.1 51.2 59.3 56.7 75 WNW 13 G 19 29.82 1010.0 0.00 81 0.8 0.016
31 07:00 57.5 50.4 77 W 9 G 13 29.82 1009.8 0.00 37 0.0 0.014
31 06:00 56.9 49.8 77 W 10 G 15 29.81 1009.4 0.00 18 0.0 0.012
31 05:00 57.0 49.9 77 W 8 G 13 29.79 1008.9 0.00 0 0.0 0.010
31 04:00 56.9 49.8 77 WNW 8 G 14 29.77 1008.2 0.00 0 0.0 0.008
31 03:00 57.8 49.9 75 WNW 10 G 14 29.77 1008.2 0.00 0 0.0 0.006
31 02:00 59.3 50.3 67.7 59.2 72 WNW 13 G 19 29.78 1008.5 0.00 0 0.0 0.003
31 01:00 60.0 51.0 72 W 12 G 19 29.78 1008.4 0.00 0 0.0 0.000
31 00:00 60.0 52.4 76 W 8 G 11 29.77 1008.3 0.38 0 0.0 0.178
30 23:00 62.0 52.5 71 WNW 13 G 23 29.77 1008.2 0.33 0 0.0 0.175
30 22:00 63.4 54.6 73 WNW 9 G 17 29.77 1008.1 0.33 0 0.0 0.172
30 21:00 64.9 54.1 68 WNW 13 G 24 29.74 1007.0 0.33 0 0.0 0.168
30 20:00 67.6 54.1 75.0 67.6 62 WNW 17 G 35 29.69 1005.6 0.33 7 0.0 0.163
30 19:00 70.3 58.0 65 W 12 G 17 29.66 1004.5 0.33 155 0.0 0.155
30 18:00 71.8 58.1 62 WNW 11 G 22 29.64 1003.8 0.33 394 0.7 0.140
30 17:00 72.4 59.1 63 WNW 12 G 21 29.64 1003.7 0.33 211 1.5 0.128
30 16:00 72.4 60.8 67 W 14 G 22 29.62 1003.1 0.33 192 1.4 0.115
30 15:00 74.7 62.6 66 W 13 G 21 29.61 1002.6 0.33 1007 2.1 0.091
30 14:00 73.6 62.8 73.6 61.3 69 WNW 10 G 23 29.61 1002.8 0.33 951 4.6 0.068
30 13:00 72.4 63.3 73 W 8 G 18 29.62 1003.2 0.33 977 5.1 0.049
30 12:00 70.4 62.5 76 WNW 3 G 14 29.62 1003.0 0.33 246 3.0 0.031
30 11:00 68.6 62.9 82 WNW 8 G 17 29.61 1002.8 0.33 735 3.9 0.020
30 10:00 65.4 62.1 89 NNW 9 G 16 29.60 1002.3 0.33 234 2.0 0.016
30 09:00 62.9 60.5 92 NW 6 G 11 29.60 1002.5 0.33 146 1.0 0.012
30 08:00 61.3 59.0 61.3 60.0 92 N 6 G 10 29.60 1002.3 0.01 0.33 178 0.8 0.010
30 07:00 60.1 57.8 92 N 3 G 9 29.58 1001.9 0.33 26 0.0 0.009
30 06:00 60.3 57.7 91 E 15 G 17 29.57 1001.3 0.33 9 0.0 0.008
30 05:00 60.7 58.1 91 E 17 G 19 29.57 1001.5 0.01 0.33 0 0.0 0.007
30 04:00 60.6 57.7 90 ESE 22 G 26 29.59 1001.9 0.01 0.33 0 0.0 0.005
30 03:00 61.0 58.0 90 SE 25 G 29 29.61 1002.8 0.32 0 0.0 0.003
30 02:00 60.8 58.2 64.1 60.0 91 ESE 25 G 29 29.64 1003.8 0.05 0.58 0.92 0.32 0 0.0 0.002
30 01:00 60.1 57.5 91 ESE 25 G 37 29.65 1004.1 0.32 0.27 0 0.0 0.000
30 00:00 60.8 57.9 90 SSE 17 G 21 29.77 1008.1 0.21 0.58 0 0.0 0.110
29 23:00 60.9 57.6 89 S 16 G 24 29.78 1008.7 0.18 0.34 0.40 0 0.0 0.108
29 22:00 62.2 58.6 88 S 16 G 23 29.81 1009.6 0.12 0.22 0 0.0 0.107
29 21:00 62.6 58.7 87 SSW 14 G 20 29.83 1010.1 0.04 0.10 0 0.0 0.105
29 20:00 64.0 59.4 70.5 64.0 85 SSW 18 G 24 29.82 1009.7 0.01 0.03 0.06 0.06 0 0.0 0.102
29 19:00 65.0 59.7 83 S 22 G 27 29.82 1010.0 0.01 0.05 30 0.0 0.099
29 18:00 64.7 59.4 83 SSE 15 G 21 29.84 1010.6 0.01 0.04 28 0.0 0.096
29 17:00 65.2 60.2 84 S 20 G 25 29.86 1011.2 0.03 0.03 0.03 35 0.0 0.093
29 16:00 66.4 62.1 86 SSW 7 G 11 29.88 1011.9 0.00 35 0.0 0.091
29 15:00 67.0 62.3 85 S 8 G 11 29.90 1012.6 0.00 90 0.7 0.079
29 14:00 70.3 63.8 70.3 61.3 80 SE 4 G 5 29.91 1013.0 0.00 802 4.1 0.060
29 13:00 68.8 60.6 75 SSE 6 G 9 29.94 1014.0 0.00 334 2.4 0.046
29 12:00 68.6 59.6 73 SE 6 G 9 29.96 1014.7 0.00 661 4.3 0.025
29 11:00 67.2 58.3 73 E 4 G 4 29.98 1015.3 0.00 744 4.0 0.015
29 10:00 64.4 57.0 77 SSE 2 G 3 29.98 1015.4 0.00 111 1.8 0.012
29 09:00 63.6 56.3 77 SE 1 G 9 29.99 1015.7 0.00 111 1.3 0.009
29 08:00 61.3 54.4 61.3 53.9 78 SE 1 G 2 30.00 1016.1 0.00 60 0.8 0.007
29 07:00 58.3 52.2 80 NNW 0 G 2 30.00 1015.8 0.00 37 0.0 0.006
29 06:00 54.0 48.3 81 NNE 1 G 3 29.99 1015.5 0.00 16 0.0 0.006
29 05:00 56.5 49.7 78 NW 4 G 7 29.98 1015.3 0.00 0 0.0 0.005
29 04:00 57.8 50.6 77 N 1 G 1 29.98 1015.2 0.00 0 0.0 0.004
29 03:00 58.8 51.3 76 NNW 8 G 12 29.98 1015.3 0.00 0 0.0 0.002
29 02:00 57.7 51.6 64.5 56.4 80 NNW 9 G 10 29.99 1015.4 0.00 0 0.0 0.001
29 01:00 59.5 53.0 79 NNE 2 G 3 29.99 1015.5 0.00 0 0.0 0.000
29 00:00 60.2 54.0 80 NW 8 G 11 29.99 1015.5 0.16 0 0.0 0.180
28 23:00 61.4 55.9 82 WNW 8 G 10 29.98 1015.2 0.16 0 0.0 0.179
28 22:00 62.2 57.6 85 W 6 G 8 29.98 1015.3 0.16 0 0.0 0.178
28 21:00 63.1 58.2 84 WSW 4 G 7 29.98 1015.3 0.16 0 0.0 0.177
28 20:00 64.4 57.8 75.6 64.4 79 WSW 3 G 9 29.97 1015.1 0.16 9 0.0 0.175
28 19:00 67.0 58.8 75 WSW 4 G 13 29.96 1014.7 0.16 167 0.0 0.168
28 18:00 68.8 61.3 77 WSW 4 G 10 29.95 1014.3 0.16 388 0.7 0.156
28 17:00 68.1 60.3 76 S 7 G 10 29.95 1014.3 0.16 642 1.4 0.142
28 16:00 75.5 53.3 46 WNW 7 G 10 29.95 1014.2 0.16 777 2.5 0.119
28 15:00 73.9 53.6 49 NW 7 G 16 29.95 1014.3 0.16 879 3.7 0.094
28 14:00 72.1 54.6 72.2 61.0 54 WNW 8 G 13 29.97 1014.9 0.16 967 4.6 0.069
28 13:00 71.1 55.1 57 WNW 7 G 12 29.98 1015.2 0.16 902 4.7 0.044
28 12:00 70.6 54.6 57 W 8 G 12 29.98 1015.1 0.16 1014 4.6 0.022
28 11:00 68.1 57.2 68 NW 7 G 14 29.98 1015.4 0.16 696 3.9 0.012
28 10:00 66.2 57.7 74 NW 5 G 13 29.98 1015.3 0.16 83 1.7 0.009

Data generated by WxSolution Version 1.9.1.8, Build 2020.02.16.